sensor_id;sensor_type;location;lat;lon;timestamp;P1;durP1;ratioP1;P2;durP2;ratioP2
13832;SDS011;6987;19.472;-99.276;2023-03-01T00:01:23;4.03;;;3.72;;
13832;SDS011;6987;19.472;-99.276;2023-03-01T00:03:55;9.30;;;4.47;;
13832;SDS011;6987;19.472;-99.276;2023-03-01T00:06:26;5.03;;;3.78;;
13832;SDS011;6987;19.472;-99.276;2023-03-01T00:08:56;4.13;;;3.90;;
13832;SDS011;6987;19.472;-99.276;2023-03-01T00:11:25;4.75;;;4.35;;
13832;SDS011;6987;19.472;-99.276;2023-03-01T00:13:55;4.20;;;3.85;;
13832;SDS011;6987;19.472;-99.276;2023-03-01T00:16:25;4.43;;;4.00;;
13832;SDS011;6987;19.472;-99.276;2023-03-01T00:18:55;9.00;;;4.97;;
13832;SDS011;6987;19.472;-99.276;2023-03-01T00:21:26;7.18;;;4.85;;
13832;SDS011;6987;19.472;-99.276;2023-03-01T00:23:56;6.25;;;4.35;;
13832;SDS011;6987;19.472;-99.276;2023-03-01T00:26:25;7.38;;;5.60;;
13832;SDS011;6987;19.472;-99.276;2023-03-01T00:28:56;6.68;;;5.55;;
13832;SDS011;6987;19.472;-99.276;2023-03-01T00:31:25;6.13;;;5.63;;
13832;SDS011;6987;19.472;-99.276;2023-03-01T00:33:56;8.45;;;6.10;;
13832;SDS011;6987;19.472;-99.276;2023-03-01T00:36:27;5.47;;;4.63;;
13832;SDS011;6987;19.472;-99.276;2023-03-01T00:38:56;6.07;;;5.22;;
13832;SDS011;6987;19.472;-99.276;2023-03-01T00:41:25;7.50;;;4.32;;
13832;SDS011;6987;19.472;-99.276;2023-03-01T00:43:54;5.65;;;5.03;;
13832;SDS011;6987;19.472;-99.276;2023-03-01T00:46:23;10.15;;;4.13;;
13832;SDS011;6987;19.472;-99.276;2023-03-01T00:48:53;18.60;;;3.70;;
13832;SDS011;6987;19.472;-99.276;2023-03-01T00:51:23;6.35;;;4.35;;
13832;SDS011;6987;19.472;-99.276;2023-03-01T00:53:55;22.95;;;4.72;;
13832;SDS011;6987;19.472;-99.276;2023-03-01T00:56:24;5.72;;;3.85;;
13832;SDS011;6987;19.472;-99.276;2023-03-01T00:58:54;9.10;;;3.70;;
13832;SDS011;6987;19.472;-99.276;2023-03-01T01:01:23;3.72;;;3.28;;
13832;SDS011;6987;19.472;-99.276;2023-03-01T01:03:54;4.22;;;3.80;;
13832;SDS011;6987;19.472;-99.276;2023-03-01T01:06:24;3.50;;;3.25;;
13832;SDS011;6987;19.472;-99.276;2023-03-01T01:08:55;3.70;;;3.40;;
13832;SDS011;6987;19.472;-99.276;2023-03-01T01:11:25;3.50;;;3.05;;
13832;SDS011;6987;19.472;-99.276;2023-03-01T01:13:54;4.63;;;3.60;;
13832;SDS011;6987;19.472;-99.276;2023-03-01T01:16:24;7.05;;;4.07;;
13832;SDS011;6987;19.472;-99.276;2023-03-01T01:18:54;5.07;;;3.63;;
13832;SDS011;6987;19.472;-99.276;2023-03-01T01:21:24;4.00;;;3.70;;
13832;SDS011;6987;19.472;-99.276;2023-03-01T01:23:53;4.13;;;3.72;;
13832;SDS011;6987;19.472;-99.276;2023-03-01T01:26:24;8.43;;;3.70;;
13832;SDS011;6987;19.472;-99.276;2023-03-01T01:28:53;5.50;;;3.63;;
13832;SDS011;6987;19.472;-99.276;2023-03-01T01:31:23;7.00;;;4.03;;
13832;SDS011;6987;19.472;-99.276;2023-03-01T01:33:52;10.00;;;3.50;;
13832;SDS011;6987;19.472;-99.276;2023-03-01T01:36:21;3.80;;;3.55;;
13832;SDS011;6987;19.472;-99.276;2023-03-01T01:38:50;5.63;;;4.18;;
13832;SDS011;6987;19.472;-99.276;2023-03-01T01:41:20;6.57;;;4.10;;
13832;SDS011;6987;19.472;-99.276;2023-03-01T01:46:33;8.77;;;3.65;;
13832;SDS011;6987;19.472;-99.276;2023-03-01T01:49:05;4.40;;;3.80;;
13832;SDS011;6987;19.472;-99.276;2023-03-01T01:51:37;7.88;;;3.50;;
13832;SDS011;6987;19.472;-99.276;2023-03-01T01:54:08;8.43;;;3.60;;
13832;SDS011;6987;19.472;-99.276;2023-03-01T01:56:38;9.77;;;3.60;;
13832;SDS011;6987;19.472;-99.276;2023-03-01T01:59:10;10.10;;;3.78;;
13832;SDS011;6987;19.472;-99.276;2023-03-01T02:01:41;11.70;;;3.30;;
13832;SDS011;6987;19.472;-99.276;2023-03-01T02:04:11;3.75;;;3.45;;
13832;SDS011;6987;19.472;-99.276;2023-03-01T02:06:41;8.10;;;3.55;;
13832;SDS011;6987;19.472;-99.276;2023-03-01T02:09:13;5.85;;;3.90;;
13832;SDS011;6987;19.472;-99.276;2023-03-01T02:11:43;8.13;;;3.85;;
13832;SDS011;6987;19.472;-99.276;2023-03-01T02:14:13;3.70;;;3.50;;
13832;SDS011;6987;19.472;-99.276;2023-03-01T02:16:44;4.95;;;3.53;;
13832;SDS011;6987;19.472;-99.276;2023-03-01T02:19:16;6.97;;;3.70;;
13832;SDS011;6987;19.472;-99.276;2023-03-01T02:21:48;4.30;;;3.90;;
13832;SDS011;6987;19.472;-99.276;2023-03-01T02:24:24;3.60;;;3.40;;
13832;SDS011;6987;19.472;-99.276;2023-03-01T02:26:57;6.90;;;4.30;;
13832;SDS011;6987;19.472;-99.276;2023-03-01T02:29:28;9.13;;;4.78;;
13832;SDS011;6987;19.472;-99.276;2023-03-01T02:31:58;8.43;;;4.75;;
13832;SDS011;6987;19.472;-99.276;2023-03-01T02:34:28;6.57;;;4.22;;
13832;SDS011;6987;19.472;-99.276;2023-03-01T02:37:00;6.97;;;4.68;;
13832;SDS011;6987;19.472;-99.276;2023-03-01T02:39:31;6.75;;;5.05;;
13832;SDS011;6987;19.472;-99.276;2023-03-01T02:42:01;6.22;;;4.70;;
13832;SDS011;6987;19.472;-99.276;2023-03-01T02:44:32;6.07;;;5.10;;
13832;SDS011;6987;19.472;-99.276;2023-03-01T02:47:02;13.35;;;5.13;;
13832;SDS011;6987;19.472;-99.276;2023-03-01T02:49:32;6.75;;;4.93;;
13832;SDS011;6987;19.472;-99.276;2023-03-01T02:52:06;6.55;;;4.78;;
13832;SDS011;6987;19.472;-99.276;2023-03-01T02:54:39;10.25;;;4.90;;
13832;SDS011;6987;19.472;-99.276;2023-03-01T02:57:09;8.48;;;4.60;;
13832;SDS011;6987;19.472;-99.276;2023-03-01T02:59:40;7.68;;;4.32;;
13832;SDS011;6987;19.472;-99.276;2023-03-01T03:02:18;8.30;;;4.93;;
13832;SDS011;6987;19.472;-99.276;2023-03-01T03:05:02;6.80;;;4.47;;
13832;SDS011;6987;19.472;-99.276;2023-03-01T03:07:32;6.13;;;4.50;;
13832;SDS011;6987;19.472;-99.276;2023-03-01T03:10:02;7.60;;;4.95;;
13832;SDS011;6987;19.472;-99.276;2023-03-01T03:12:31;4.63;;;4.13;;
13832;SDS011;6987;19.472;-99.276;2023-03-01T03:15:03;10.95;;;4.45;;
13832;SDS011;6987;19.472;-99.276;2023-03-01T03:17:34;6.28;;;4.80;;
13832;SDS011;6987;19.472;-99.276;2023-03-01T03:20:03;6.97;;;4.28;;
13832;SDS011;6987;19.472;-99.276;2023-03-01T03:22:36;6.07;;;4.88;;
13832;SDS011;6987;19.472;-99.276;2023-03-01T03:25:05;7.35;;;5.70;;
13832;SDS011;6987;19.472;-99.276;2023-03-01T03:27:39;6.22;;;4.78;;
13832;SDS011;6987;19.472;-99.276;2023-03-01T03:30:11;10.10;;;5.50;;
13832;SDS011;6987;19.472;-99.276;2023-03-01T03:32:40;5.43;;;4.15;;
13832;SDS011;6987;19.472;-99.276;2023-03-01T03:35:18;5.57;;;4.63;;
13832;SDS011;6987;19.472;-99.276;2023-03-01T03:37:48;6.00;;;4.80;;
13832;SDS011;6987;19.472;-99.276;2023-03-01T03:40:29;8.48;;;4.63;;
13832;SDS011;6987;19.472;-99.276;2023-03-01T03:42:58;6.43;;;5.40;;
13832;SDS011;6987;19.472;-99.276;2023-03-01T03:45:30;4.97;;;4.63;;
13832;SDS011;6987;19.472;-99.276;2023-03-01T03:47:59;9.88;;;5.97;;
13832;SDS011;6987;19.472;-99.276;2023-03-01T03:50:28;10.45;;;5.68;;
13832;SDS011;6987;19.472;-99.276;2023-03-01T03:52:59;11.15;;;6.15;;
13832;SDS011;6987;19.472;-99.276;2023-03-01T03:55:28;8.52;;;6.13;;
13832;SDS011;6987;19.472;-99.276;2023-03-01T03:57:59;14.88;;;7.25;;
13832;SDS011;6987;19.472;-99.276;2023-03-01T04:00:35;10.02;;;7.25;;
13832;SDS011;6987;19.472;-99.276;2023-03-01T04:03:04;13.77;;;7.88;;
13832;SDS011;6987;19.472;-99.276;2023-03-01T04:05:34;12.77;;;6.63;;
13832;SDS011;6987;19.472;-99.276;2023-03-01T04:08:04;12.77;;;6.53;;
13832;SDS011;6987;19.472;-99.276;2023-03-01T04:10:33;10.57;;;7.05;;
13832;SDS011;6987;19.472;-99.276;2023-03-01T04:13:04;10.40;;;7.40;;
13832;SDS011;6987;19.472;-99.276;2023-03-01T04:15:35;12.90;;;7.90;;
13832;SDS011;6987;19.472;-99.276;2023-03-01T04:18:05;12.38;;;7.18;;
13832;SDS011;6987;19.472;-99.276;2023-03-01T04:20:34;15.63;;;7.55;;
13832;SDS011;6987;19.472;-99.276;2023-03-01T04:23:04;9.93;;;7.20;;
13832;SDS011;6987;19.472;-99.276;2023-03-01T04:25:39;11.48;;;7.47;;
13832;SDS011;6987;19.472;-99.276;2023-03-01T04:28:09;16.45;;;8.27;;
13832;SDS011;6987;19.472;-99.276;2023-03-01T04:30:39;19.92;;;8.02;;
13832;SDS011;6987;19.472;-99.276;2023-03-01T04:33:09;14.02;;;8.07;;
13832;SDS011;6987;19.472;-99.276;2023-03-01T04:35:38;13.32;;;8.60;;
13832;SDS011;6987;19.472;-99.276;2023-03-01T04:38:07;13.48;;;7.53;;
13832;SDS011;6987;19.472;-99.276;2023-03-01T04:40:37;10.13;;;7.47;;
13832;SDS011;6987;19.472;-99.276;2023-03-01T04:43:08;16.33;;;7.70;;
13832;SDS011;6987;19.472;-99.276;2023-03-01T04:45:39;9.38;;;7.47;;
13832;SDS011;6987;19.472;-99.276;2023-03-01T04:48:08;9.85;;;7.78;;
13832;SDS011;6987;19.472;-99.276;2023-03-01T04:50:37;12.05;;;8.38;;
13832;SDS011;6987;19.472;-99.276;2023-03-01T04:53:07;22.73;;;7.88;;
13832;SDS011;6987;19.472;-99.276;2023-03-01T04:55:36;9.98;;;7.43;;
13832;SDS011;6987;19.472;-99.276;2023-03-01T04:58:05;14.68;;;7.40;;
13832;SDS011;6987;19.472;-99.276;2023-03-01T05:00:34;13.85;;;8.02;;
13832;SDS011;6987;19.472;-99.276;2023-03-01T05:03:05;11.75;;;7.68;;
13832;SDS011;6987;19.472;-99.276;2023-03-01T05:05:34;12.60;;;7.35;;
13832;SDS011;6987;19.472;-99.276;2023-03-01T05:08:05;11.80;;;7.65;;
13832;SDS011;6987;19.472;-99.276;2023-03-01T05:10:35;14.35;;;7.35;;
13832;SDS011;6987;19.472;-99.276;2023-03-01T05:13:04;10.52;;;7.47;;
13832;SDS011;6987;19.472;-99.276;2023-03-01T05:15:34;10.82;;;7.05;;
13832;SDS011;6987;19.472;-99.276;2023-03-01T05:18:05;11.63;;;6.82;;
13832;SDS011;6987;19.472;-99.276;2023-03-01T05:20:37;8.20;;;6.10;;
13832;SDS011;6987;19.472;-99.276;2023-03-01T05:23:06;11.52;;;6.10;;
13832;SDS011;6987;19.472;-99.276;2023-03-01T05:25:36;9.35;;;5.53;;
13832;SDS011;6987;19.472;-99.276;2023-03-01T05:28:06;6.90;;;5.97;;
13832;SDS011;6987;19.472;-99.276;2023-03-01T05:30:35;15.20;;;6.68;;
13832;SDS011;6987;19.472;-99.276;2023-03-01T05:33:07;6.93;;;5.28;;
13832;SDS011;6987;19.472;-99.276;2023-03-01T05:35:39;11.57;;;5.22;;
13832;SDS011;6987;19.472;-99.276;2023-03-01T05:38:08;10.48;;;6.07;;
13832;SDS011;6987;19.472;-99.276;2023-03-01T05:40:39;20.35;;;4.93;;
13832;SDS011;6987;19.472;-99.276;2023-03-01T05:43:08;6.13;;;5.03;;
13832;SDS011;6987;19.472;-99.276;2023-03-01T05:45:38;5.03;;;4.35;;
13832;SDS011;6987;19.472;-99.276;2023-03-01T05:48:09;6.88;;;4.45;;
13832;SDS011;6987;19.472;-99.276;2023-03-01T05:50:39;8.40;;;4.65;;
13832;SDS011;6987;19.472;-99.276;2023-03-01T05:53:09;5.13;;;4.63;;
13832;SDS011;6987;19.472;-99.276;2023-03-01T05:55:39;4.82;;;4.20;;
13832;SDS011;6987;19.472;-99.276;2023-03-01T05:58:09;6.35;;;4.32;;
13832;SDS011;6987;19.472;-99.276;2023-03-01T06:00:39;6.85;;;4.15;;
13832;SDS011;6987;19.472;-99.276;2023-03-01T06:03:11;5.63;;;4.05;;
13832;SDS011;6987;19.472;-99.276;2023-03-01T06:05:40;4.30;;;3.40;;
13832;SDS011;6987;19.472;-99.276;2023-03-01T06:08:10;4.47;;;4.03;;
13832;SDS011;6987;19.472;-99.276;2023-03-01T06:10:39;6.03;;;4.55;;
13832;SDS011;6987;19.472;-99.276;2023-03-01T06:13:08;4.00;;;3.60;;
13832;SDS011;6987;19.472;-99.276;2023-03-01T06:15:37;4.03;;;3.17;;
13832;SDS011;6987;19.472;-99.276;2023-03-01T06:18:07;4.07;;;3.78;;
13832;SDS011;6987;19.472;-99.276;2023-03-01T06:20:37;10.23;;;3.45;;
13832;SDS011;6987;19.472;-99.276;2023-03-01T06:23:07;4.28;;;3.65;;
13832;SDS011;6987;19.472;-99.276;2023-03-01T06:25:36;3.58;;;3.28;;
13832;SDS011;6987;19.472;-99.276;2023-03-01T06:28:05;4.35;;;3.30;;
13832;SDS011;6987;19.472;-99.276;2023-03-01T06:30:34;6.47;;;3.95;;
13832;SDS011;6987;19.472;-99.276;2023-03-01T06:33:03;5.15;;;2.97;;
13832;SDS011;6987;19.472;-99.276;2023-03-01T06:35:32;4.07;;;3.45;;
13832;SDS011;6987;19.472;-99.276;2023-03-01T06:38:04;4.45;;;3.35;;
13832;SDS011;6987;19.472;-99.276;2023-03-01T06:40:33;4.28;;;3.22;;
13832;SDS011;6987;19.472;-99.276;2023-03-01T06:43:02;4.15;;;3.75;;
13832;SDS011;6987;19.472;-99.276;2023-03-01T06:45:33;3.63;;;3.30;;
13832;SDS011;6987;19.472;-99.276;2023-03-01T06:48:03;3.30;;;3.10;;
13832;SDS011;6987;19.472;-99.276;2023-03-01T06:50:32;3.80;;;3.47;;
13832;SDS011;6987;19.472;-99.276;2023-03-01T06:53:01;3.90;;;3.28;;
13832;SDS011;6987;19.472;-99.276;2023-03-01T06:55:32;3.97;;;2.85;;
13832;SDS011;6987;19.472;-99.276;2023-03-01T06:58:02;4.95;;;3.97;;
13832;SDS011;6987;19.472;-99.276;2023-03-01T07:00:31;3.35;;;3.15;;
13832;SDS011;6987;19.472;-99.276;2023-03-01T07:03:00;5.10;;;3.50;;
13832;SDS011;6987;19.472;-99.276;2023-03-01T07:05:30;4.18;;;3.75;;
13832;SDS011;6987;19.472;-99.276;2023-03-01T07:07:59;6.03;;;3.28;;
13832;SDS011;6987;19.472;-99.276;2023-03-01T07:10:28;3.78;;;3.05;;
13832;SDS011;6987;19.472;-99.276;2023-03-01T07:12:59;4.78;;;3.42;;
13832;SDS011;6987;19.472;-99.276;2023-03-01T07:15:28;4.30;;;3.05;;
13832;SDS011;6987;19.472;-99.276;2023-03-01T07:17:58;6.95;;;3.60;;
13832;SDS011;6987;19.472;-99.276;2023-03-01T07:20:27;4.40;;;3.50;;
13832;SDS011;6987;19.472;-99.276;2023-03-01T07:22:56;8.02;;;3.88;;
13832;SDS011;6987;19.472;-99.276;2023-03-01T07:25:25;6.38;;;3.75;;
13832;SDS011;6987;19.472;-99.276;2023-03-01T07:27:54;5.85;;;4.05;;
13832;SDS011;6987;19.472;-99.276;2023-03-01T07:30:25;5.32;;;3.00;;
13832;SDS011;6987;19.472;-99.276;2023-03-01T07:32:54;4.32;;;3.30;;
13832;SDS011;6987;19.472;-99.276;2023-03-01T07:35:23;3.50;;;3.30;;
13832;SDS011;6987;19.472;-99.276;2023-03-01T07:37:53;5.10;;;3.20;;
13832;SDS011;6987;19.472;-99.276;2023-03-01T07:40:22;3.10;;;2.90;;
13832;SDS011;6987;19.472;-99.276;2023-03-01T07:42:54;3.17;;;2.95;;
13832;SDS011;6987;19.472;-99.276;2023-03-01T07:45:25;4.57;;;3.05;;
13832;SDS011;6987;19.472;-99.276;2023-03-01T07:47:54;4.65;;;2.92;;
13832;SDS011;6987;19.472;-99.276;2023-03-01T07:50:23;7.10;;;3.13;;
13832;SDS011;6987;19.472;-99.276;2023-03-01T07:52:53;6.63;;;3.67;;
13832;SDS011;6987;19.472;-99.276;2023-03-01T07:55:22;4.10;;;3.40;;
13832;SDS011;6987;19.472;-99.276;2023-03-01T07:57:51;8.40;;;4.25;;
13832;SDS011;6987;19.472;-99.276;2023-03-01T08:00:20;3.90;;;3.63;;
13832;SDS011;6987;19.472;-99.276;2023-03-01T08:02:51;4.75;;;3.92;;
13832;SDS011;6987;19.472;-99.276;2023-03-01T08:05:20;4.88;;;4.38;;
13832;SDS011;6987;19.472;-99.276;2023-03-01T08:07:50;3.22;;;2.85;;
13832;SDS011;6987;19.472;-99.276;2023-03-01T08:10:19;4.30;;;3.90;;
13832;SDS011;6987;19.472;-99.276;2023-03-01T08:12:48;4.18;;;3.80;;
13832;SDS011;6987;19.472;-99.276;2023-03-01T08:15:19;5.05;;;4.45;;
13832;SDS011;6987;19.472;-99.276;2023-03-01T08:17:48;4.45;;;4.05;;
13832;SDS011;6987;19.472;-99.276;2023-03-01T08:20:19;5.28;;;4.22;;
13832;SDS011;6987;19.472;-99.276;2023-03-01T08:22:48;4.18;;;3.88;;
13832;SDS011;6987;19.472;-99.276;2023-03-01T08:25:17;6.72;;;4.10;;
13832;SDS011;6987;19.472;-99.276;2023-03-01T08:27:47;6.32;;;4.63;;
13832;SDS011;6987;19.472;-99.276;2023-03-01T08:30:17;7.13;;;5.03;;
13832;SDS011;6987;19.472;-99.276;2023-03-01T08:32:46;5.78;;;4.45;;
13832;SDS011;6987;19.472;-99.276;2023-03-01T08:35:15;7.65;;;5.47;;
13832;SDS011;6987;19.472;-99.276;2023-03-01T08:37:46;5.57;;;5.00;;
13832;SDS011;6987;19.472;-99.276;2023-03-01T08:40:15;8.60;;;5.55;;
13832;SDS011;6987;19.472;-99.276;2023-03-01T08:42:44;8.02;;;6.18;;
13832;SDS011;6987;19.472;-99.276;2023-03-01T08:45:13;10.57;;;5.25;;
13832;SDS011;6987;19.472;-99.276;2023-03-01T08:47:44;12.07;;;6.15;;
13832;SDS011;6987;19.472;-99.276;2023-03-01T08:50:12;11.50;;;6.13;;
13832;SDS011;6987;19.472;-99.276;2023-03-01T08:52:41;7.55;;;6.30;;
13832;SDS011;6987;19.472;-99.276;2023-03-01T08:55:12;7.10;;;5.07;;
13832;SDS011;6987;19.472;-99.276;2023-03-01T08:57:42;8.73;;;6.55;;
13832;SDS011;6987;19.472;-99.276;2023-03-01T09:00:12;7.93;;;5.72;;
13832;SDS011;6987;19.472;-99.276;2023-03-01T09:02:43;9.32;;;6.50;;
13832;SDS011;6987;19.472;-99.276;2023-03-01T09:05:12;8.35;;;6.30;;
13832;SDS011;6987;19.472;-99.276;2023-03-01T09:07:41;7.68;;;6.00;;
13832;SDS011;6987;19.472;-99.276;2023-03-01T09:10:12;8.25;;;6.72;;
13832;SDS011;6987;19.472;-99.276;2023-03-01T09:12:41;14.38;;;7.03;;
13832;SDS011;6987;19.472;-99.276;2023-03-01T09:15:10;9.98;;;6.38;;
13832;SDS011;6987;19.472;-99.276;2023-03-01T09:17:39;9.70;;;6.43;;
13832;SDS011;6987;19.472;-99.276;2023-03-01T09:20:09;10.65;;;7.30;;
13832;SDS011;6987;19.472;-99.276;2023-03-01T09:22:38;8.65;;;7.00;;
13832;SDS011;6987;19.472;-99.276;2023-03-01T09:25:07;9.77;;;6.82;;
13832;SDS011;6987;19.472;-99.276;2023-03-01T09:27:38;16.92;;;6.45;;
13832;SDS011;6987;19.472;-99.276;2023-03-01T09:30:08;10.68;;;6.75;;
13832;SDS011;6987;19.472;-99.276;2023-03-01T09:32:37;7.45;;;6.75;;
13832;SDS011;6987;19.472;-99.276;2023-03-01T09:35:10;10.43;;;7.15;;
13832;SDS011;6987;19.472;-99.276;2023-03-01T09:37:39;9.13;;;7.30;;
13832;SDS011;6987;19.472;-99.276;2023-03-01T09:40:11;8.20;;;6.75;;
13832;SDS011;6987;19.472;-99.276;2023-03-01T09:42:48;11.07;;;7.10;;
13832;SDS011;6987;19.472;-99.276;2023-03-01T09:45:20;12.30;;;7.30;;
13832;SDS011;6987;19.472;-99.276;2023-03-01T09:47:50;10.25;;;7.55;;
13832;SDS011;6987;19.472;-99.276;2023-03-01T09:50:20;12.98;;;7.43;;
13832;SDS011;6987;19.472;-99.276;2023-03-01T09:52:50;10.40;;;6.55;;
13832;SDS011;6987;19.472;-99.276;2023-03-01T09:55:25;8.35;;;6.10;;
13832;SDS011;6987;19.472;-99.276;2023-03-01T09:57:57;8.02;;;6.05;;
13832;SDS011;6987;19.472;-99.276;2023-03-01T10:00:33;11.00;;;7.32;;
13832;SDS011;6987;19.472;-99.276;2023-03-01T10:03:09;8.95;;;7.43;;
13832;SDS011;6987;19.472;-99.276;2023-03-01T10:05:43;10.95;;;7.03;;
13832;SDS011;6987;19.472;-99.276;2023-03-01T10:08:23;13.07;;;7.15;;
13832;SDS011;6987;19.472;-99.276;2023-03-01T10:10:52;7.68;;;6.90;;
13832;SDS011;6987;19.472;-99.276;2023-03-01T10:13:24;11.65;;;7.05;;
13832;SDS011;6987;19.472;-99.276;2023-03-01T10:15:54;9.43;;;7.57;;
13832;SDS011;6987;19.472;-99.276;2023-03-01T10:18:24;9.82;;;6.38;;
13832;SDS011;6987;19.472;-99.276;2023-03-01T10:20:55;9.45;;;6.70;;
13832;SDS011;6987;19.472;-99.276;2023-03-01T10:23:25;14.10;;;7.90;;
13832;SDS011;6987;19.472;-99.276;2023-03-01T10:28:44;14.20;;;7.95;;
13832;SDS011;6987;19.472;-99.276;2023-03-01T10:31:17;10.55;;;7.47;;
13832;SDS011;6987;19.472;-99.276;2023-03-01T10:33:47;13.30;;;6.93;;
13832;SDS011;6987;19.472;-99.276;2023-03-01T10:36:20;14.10;;;6.70;;
13832;SDS011;6987;19.472;-99.276;2023-03-01T10:38:50;10.43;;;6.63;;
13832;SDS011;6987;19.472;-99.276;2023-03-01T10:41:19;10.68;;;6.70;;
13832;SDS011;6987;19.472;-99.276;2023-03-01T10:43:58;14.95;;;7.10;;
13832;SDS011;6987;19.472;-99.276;2023-03-01T10:46:28;7.65;;;6.88;;
13832;SDS011;6987;19.472;-99.276;2023-03-01T10:49:05;11.20;;;6.35;;
13832;SDS011;6987;19.472;-99.276;2023-03-01T10:51:39;8.95;;;6.35;;
13832;SDS011;6987;19.472;-99.276;2023-03-01T10:54:15;8.10;;;5.78;;
13832;SDS011;6987;19.472;-99.276;2023-03-01T10:56:48;10.50;;;6.78;;
13832;SDS011;6987;19.472;-99.276;2023-03-01T10:59:25;8.07;;;6.50;;
13832;SDS011;6987;19.472;-99.276;2023-03-01T11:04:42;7.13;;;6.07;;
13832;SDS011;6987;19.472;-99.276;2023-03-01T11:07:24;11.82;;;5.88;;
13832;SDS011;6987;19.472;-99.276;2023-03-01T11:09:53;8.57;;;5.53;;
13832;SDS011;6987;19.472;-99.276;2023-03-01T11:12:23;6.40;;;5.20;;
13832;SDS011;6987;19.472;-99.276;2023-03-01T11:14:57;5.72;;;5.32;;
13832;SDS011;6987;19.472;-99.276;2023-03-01T11:17:28;6.00;;;5.32;;
13832;SDS011;6987;19.472;-99.276;2023-03-01T11:20:01;6.35;;;5.57;;
13832;SDS011;6987;19.472;-99.276;2023-03-01T11:22:31;8.13;;;5.55;;
13832;SDS011;6987;19.472;-99.276;2023-03-01T11:25:01;7.15;;;5.45;;
13832;SDS011;6987;19.472;-99.276;2023-03-01T11:27:31;5.03;;;4.55;;
13832;SDS011;6987;19.472;-99.276;2023-03-01T11:30:04;6.85;;;5.40;;
13832;SDS011;6987;19.472;-99.276;2023-03-01T11:32:35;8.00;;;4.80;;
13832;SDS011;6987;19.472;-99.276;2023-03-01T11:35:05;6.85;;;5.00;;
13832;SDS011;6987;19.472;-99.276;2023-03-01T11:37:38;10.00;;;5.38;;
13832;SDS011;6987;19.472;-99.276;2023-03-01T11:40:23;7.20;;;5.07;;
13832;SDS011;6987;19.472;-99.276;2023-03-01T11:42:56;7.45;;;5.05;;
13832;SDS011;6987;19.472;-99.276;2023-03-01T11:45:34;9.18;;;5.07;;
13832;SDS011;6987;19.472;-99.276;2023-03-01T11:48:11;4.68;;;4.28;;
13832;SDS011;6987;19.472;-99.276;2023-03-01T11:50:44;5.20;;;4.70;;
13832;SDS011;6987;19.472;-99.276;2023-03-01T11:53:28;5.75;;;4.78;;
13832;SDS011;6987;19.472;-99.276;2023-03-01T11:56:01;5.15;;;4.65;;
13832;SDS011;6987;19.472;-99.276;2023-03-01T11:58:36;5.85;;;4.45;;
13832;SDS011;6987;19.472;-99.276;2023-03-01T12:01:18;5.00;;;4.47;;
13832;SDS011;6987;19.472;-99.276;2023-03-01T12:06:42;16.40;;;5.88;;
13832;SDS011;6987;19.472;-99.276;2023-03-01T12:09:22;9.18;;;5.22;;
13832;SDS011;6987;19.472;-99.276;2023-03-01T12:12:06;5.50;;;4.72;;
13832;SDS011;6987;19.472;-99.276;2023-03-01T12:20:17;9.40;;;5.38;;
13832;SDS011;6987;19.472;-99.276;2023-03-01T12:22:52;9.63;;;5.50;;
13832;SDS011;6987;19.472;-99.276;2023-03-01T12:25:28;5.72;;;5.07;;
13832;SDS011;6987;19.472;-99.276;2023-03-01T12:28:04;6.22;;;5.03;;
13832;SDS011;6987;19.472;-99.276;2023-03-01T12:30:42;12.65;;;5.05;;
13832;SDS011;6987;19.472;-99.276;2023-03-01T12:33:17;13.75;;;5.95;;
13832;SDS011;6987;19.472;-99.276;2023-03-01T12:35:53;8.65;;;5.30;;
13832;SDS011;6987;19.472;-99.276;2023-03-01T12:38:29;5.53;;;5.05;;
13832;SDS011;6987;19.472;-99.276;2023-03-01T12:41:06;5.93;;;4.82;;
13832;SDS011;6987;19.472;-99.276;2023-03-01T12:43:44;13.50;;;5.90;;
13832;SDS011;6987;19.472;-99.276;2023-03-01T12:46:21;7.47;;;5.25;;
13832;SDS011;6987;19.472;-99.276;2023-03-01T12:48:55;6.85;;;5.57;;
13832;SDS011;6987;19.472;-99.276;2023-03-01T12:51:30;10.85;;;5.97;;
13832;SDS011;6987;19.472;-99.276;2023-03-01T12:54:01;10.80;;;5.40;;
13832;SDS011;6987;19.472;-99.276;2023-03-01T12:56:31;11.75;;;5.70;;
13832;SDS011;6987;19.472;-99.276;2023-03-01T12:59:02;7.57;;;5.38;;
13832;SDS011;6987;19.472;-99.276;2023-03-01T13:01:36;17.70;;;5.55;;
13832;SDS011;6987;19.472;-99.276;2023-03-01T13:04:12;10.20;;;5.55;;
13832;SDS011;6987;19.472;-99.276;2023-03-01T13:06:44;9.88;;;4.82;;
13832;SDS011;6987;19.472;-99.276;2023-03-01T13:09:18;11.00;;;5.40;;
13832;SDS011;6987;19.472;-99.276;2023-03-01T13:11:48;14.25;;;5.68;;
13832;SDS011;6987;19.472;-99.276;2023-03-01T13:14:36;10.50;;;5.97;;
13832;SDS011;6987;19.472;-99.276;2023-03-01T13:17:28;14.18;;;5.55;;
13832;SDS011;6987;19.472;-99.276;2023-03-01T13:19:56;14.27;;;5.78;;
13832;SDS011;6987;19.472;-99.276;2023-03-01T13:22:28;14.65;;;6.15;;
13832;SDS011;6987;19.472;-99.276;2023-03-01T13:25:01;21.83;;;6.55;;
13832;SDS011;6987;19.472;-99.276;2023-03-01T13:27:31;7.95;;;5.15;;
13832;SDS011;6987;19.472;-99.276;2023-03-01T13:30:00;10.68;;;6.22;;
13832;SDS011;6987;19.472;-99.276;2023-03-01T13:32:31;23.10;;;5.95;;
13832;SDS011;6987;19.472;-99.276;2023-03-01T13:35:06;11.93;;;5.78;;
13832;SDS011;6987;19.472;-99.276;2023-03-01T13:37:55;14.15;;;7.03;;
13832;SDS011;6987;19.472;-99.276;2023-03-01T13:40:59;16.17;;;6.78;;
13832;SDS011;6987;19.472;-99.276;2023-03-01T13:43:29;14.65;;;6.25;;
13832;SDS011;6987;19.472;-99.276;2023-03-01T13:45:58;11.70;;;5.95;;
13832;SDS011;6987;19.472;-99.276;2023-03-01T13:48:29;18.48;;;6.28;;
13832;SDS011;6987;19.472;-99.276;2023-03-01T13:50:59;16.00;;;6.13;;
13832;SDS011;6987;19.472;-99.276;2023-03-01T13:53:31;8.25;;;6.00;;
13832;SDS011;6987;19.472;-99.276;2023-03-01T13:56:02;11.50;;;5.57;;
13832;SDS011;6987;19.472;-99.276;2023-03-01T13:58:44;12.57;;;7.00;;
13832;SDS011;6987;19.472;-99.276;2023-03-01T14:01:21;11.55;;;6.93;;
13832;SDS011;6987;19.472;-99.276;2023-03-01T14:03:50;14.73;;;6.45;;
13832;SDS011;6987;19.472;-99.276;2023-03-01T14:06:20;11.80;;;6.82;;
13832;SDS011;6987;19.472;-99.276;2023-03-01T14:08:52;12.27;;;6.55;;
13832;SDS011;6987;19.472;-99.276;2023-03-01T14:11:34;11.00;;;6.50;;
13832;SDS011;6987;19.472;-99.276;2023-03-01T14:14:09;13.77;;;6.38;;
13832;SDS011;6987;19.472;-99.276;2023-03-01T14:16:45;9.32;;;5.85;;
13832;SDS011;6987;19.472;-99.276;2023-03-01T14:19:17;9.05;;;6.50;;
13832;SDS011;6987;19.472;-99.276;2023-03-01T14:21:58;9.90;;;6.05;;
13832;SDS011;6987;19.472;-99.276;2023-03-01T14:24:31;10.05;;;5.72;;
13832;SDS011;6987;19.472;-99.276;2023-03-01T14:27:00;14.70;;;6.28;;
13832;SDS011;6987;19.472;-99.276;2023-03-01T14:29:33;10.65;;;5.88;;
13832;SDS011;6987;19.472;-99.276;2023-03-01T14:32:12;7.57;;;5.72;;
13832;SDS011;6987;19.472;-99.276;2023-03-01T14:34:48;8.48;;;5.75;;
13832;SDS011;6987;19.472;-99.276;2023-03-01T14:37:18;9.18;;;6.00;;
13832;SDS011;6987;19.472;-99.276;2023-03-01T14:39:50;12.15;;;6.25;;
13832;SDS011;6987;19.472;-99.276;2023-03-01T14:42:19;17.52;;;6.63;;
13832;SDS011;6987;19.472;-99.276;2023-03-01T14:44:49;9.50;;;6.10;;
13832;SDS011;6987;19.472;-99.276;2023-03-01T14:47:21;13.95;;;6.53;;
13832;SDS011;6987;19.472;-99.276;2023-03-01T14:49:53;19.98;;;6.05;;
13832;SDS011;6987;19.472;-99.276;2023-03-01T14:52:22;15.63;;;6.60;;
13832;SDS011;6987;19.472;-99.276;2023-03-01T14:54:56;15.50;;;6.82;;
13832;SDS011;6987;19.472;-99.276;2023-03-01T14:57:25;16.85;;;7.50;;
13832;SDS011;6987;19.472;-99.276;2023-03-01T14:59:55;8.95;;;7.82;;
13832;SDS011;6987;19.472;-99.276;2023-03-01T15:02:28;13.02;;;7.35;;
13832;SDS011;6987;19.472;-99.276;2023-03-01T15:04:58;11.05;;;7.90;;
13832;SDS011;6987;19.472;-99.276;2023-03-01T15:07:28;20.80;;;8.75;;
13832;SDS011;6987;19.472;-99.276;2023-03-01T15:10:00;11.55;;;8.02;;
13832;SDS011;6987;19.472;-99.276;2023-03-01T15:12:37;9.85;;;7.82;;